createdAt,value
2023-04-07T00:03:21.773Z,19.55
2023-04-07T00:07:23.589Z,19.08
2023-04-07T00:11:25.495Z,19.00
2023-04-07T00:15:27.295Z,19.92
2023-04-07T00:19:29.031Z,21.35
2023-04-07T00:23:31.578Z,22.58
2023-04-07T00:27:33.303Z,22.23
2023-04-07T00:31:35.162Z,22.98
2023-04-07T00:35:36.957Z,23.77
2023-04-07T00:39:38.975Z,24.58
2023-04-07T00:43:40.822Z,24.15
2023-04-07T00:47:42.579Z,24.55
2023-04-07T00:51:45.891Z,23.20
2023-04-07T00:55:47.680Z,24.48
2023-04-07T00:59:51.093Z,25.73
2023-04-07T01:04:01.473Z,24.27
2023-04-07T01:08:19.177Z,24.55
2023-04-07T01:16:37.492Z,25.45
2023-04-07T01:20:40.297Z,24.25
2023-04-07T01:25:15.962Z,25.98
2023-04-07T01:29:36.567Z,27.08
2023-04-07T01:33:39.883Z,26.75
2023-04-07T01:37:42.869Z,27.15
2023-04-07T01:41:45.222Z,27.13
2023-04-07T01:45:47.712Z,26.45
2023-04-07T01:49:50.954Z,28.33
2023-04-07T01:53:53.339Z,26.75
2023-04-07T01:57:55.320Z,28.25
2023-04-07T02:01:57.174Z,27.98
2023-04-07T02:06:06.140Z,27.27
2023-04-07T02:10:12.048Z,30.30
2023-04-07T02:14:15.513Z,29.70
2023-04-07T02:18:19.927Z,27.98
2023-04-07T02:22:21.747Z,28.95
2023-04-07T02:26:23.413Z,27.80
2023-04-07T02:30:26.264Z,29.67
2023-04-07T02:34:28.293Z,27.30
2023-04-07T02:38:30.039Z,30.05
2023-04-07T02:42:31.860Z,30.90
2023-04-07T02:46:33.681Z,28.55
2023-04-07T02:50:35.472Z,31.48
2023-04-07T02:54:37.257Z,29.80
2023-04-07T02:58:39.166Z,29.25
2023-04-07T03:02:41.347Z,27.48
2023-04-07T03:06:43.104Z,28.60
2023-04-07T03:10:44.844Z,27.15
2023-04-07T03:14:46.526Z,26.65
2023-04-07T03:18:48.254Z,27.60
2023-04-07T03:22:49.951Z,28.30
2023-04-07T03:26:51.670Z,26.42
2023-04-07T03:30:53.424Z,27.52
2023-04-07T03:34:55.244Z,23.90
2023-04-07T03:38:57.218Z,23.70
2023-04-07T03:42:59.270Z,24.77
2023-04-07T03:47:01.290Z,22.50
2023-04-07T03:51:03.322Z,21.15
2023-04-07T03:55:06.012Z,21.17
2023-04-07T03:59:07.773Z,21.42
2023-04-07T04:03:10.743Z,24.33
2023-04-07T04:07:12.538Z,23.40
2023-04-07T04:11:14.266Z,23.60
2023-04-07T04:15:16.576Z,23.23
2023-04-07T04:19:18.245Z,23.05
2023-04-07T04:23:19.923Z,23.25
2023-04-07T04:27:21.792Z,25.52
2023-04-07T04:31:23.552Z,25.15
2023-04-07T04:35:25.968Z,27.15
2023-04-07T04:39:27.655Z,26.75
2023-04-07T04:43:29.328Z,25.35
2023-04-07T04:47:31.041Z,25.35
2023-04-07T04:51:32.767Z,24.90
2023-04-07T04:55:34.447Z,23.65
2023-04-07T04:59:36.272Z,23.10
2023-04-07T05:03:38.226Z,22.45
2023-04-07T05:07:40.420Z,21.55
2023-04-07T05:11:42.234Z,19.48
2023-04-07T05:15:44.081Z,20.70
2023-04-07T05:19:45.814Z,21.08
2023-04-07T05:23:47.645Z,22.60
2023-04-07T05:27:49.422Z,22.55
2023-04-07T05:31:51.182Z,20.80
2023-04-07T05:35:52.969Z,18.80
2023-04-07T05:39:54.694Z,17.83
2023-04-07T05:43:56.505Z,17.55
2023-04-07T05:47:58.197Z,17.58
2023-04-07T05:51:59.886Z,16.77
2023-04-07T05:56:01.666Z,16.02
2023-04-07T06:00:04.567Z,16.30
2023-04-07T06:04:06.350Z,16.42
2023-04-07T06:08:08.188Z,16.62
2023-04-07T06:12:12.122Z,15.00
2023-04-07T06:16:13.903Z,16.02
2023-04-07T06:20:15.664Z,17.90
2023-04-07T06:24:17.431Z,15.57
2023-04-07T06:28:19.578Z,15.57
2023-04-07T06:32:21.466Z,15.40
2023-04-07T06:36:23.603Z,14.80
2023-04-07T06:40:25.473Z,14.20
2023-04-07T06:44:27.481Z,14.10
2023-04-07T06:48:29.473Z,13.18
2023-04-07T06:52:31.228Z,14.30
2023-04-07T06:56:33.576Z,13.90
2023-04-07T07:00:36.319Z,13.20
2023-04-07T07:04:38.736Z,12.43
2023-04-07T07:08:40.791Z,12.45
2023-04-07T07:12:42.523Z,12.50
2023-04-07T07:16:44.277Z,11.27
2023-04-07T07:20:46.427Z,11.27
2023-04-07T07:24:48.232Z,11.10
2023-04-07T07:28:49.969Z,11.57
2023-04-07T07:32:53.693Z,12.18
2023-04-07T07:36:55.884Z,11.90
2023-04-07T07:40:58.606Z,12.18
2023-04-07T07:45:00.362Z,11.85
2023-04-07T07:49:02.119Z,12.13
2023-04-07T07:53:03.921Z,11.02
2023-04-07T07:57:06.049Z,12.37
2023-04-07T08:01:07.783Z,12.10
2023-04-07T08:05:09.689Z,12.60
2023-04-07T08:09:11.418Z,12.80
2023-04-07T08:13:13.158Z,13.95
2023-04-07T08:17:14.894Z,16.30
2023-04-07T08:21:16.631Z,15.85
2023-04-07T08:25:19.370Z,16.37
2023-04-07T08:29:21.085Z,16.73
2023-04-07T08:33:22.844Z,17.48
2023-04-07T08:37:24.505Z,16.33
2023-04-07T08:41:42.414Z,16.48
2023-04-07T08:45:46.515Z,17.73
2023-04-07T08:49:52.029Z,16.12
2023-04-07T08:53:57.698Z,16.37
2023-04-07T08:58:01.972Z,15.77
2023-04-07T09:02:05.679Z,16.42
2023-04-07T09:06:07.841Z,15.73
2023-04-07T09:10:10.035Z,15.57
2023-04-07T09:14:12.203Z,15.57
2023-04-07T09:18:14.773Z,14.38
2023-04-07T09:22:38.396Z,16.23
2023-04-07T09:26:40.184Z,15.65
2023-04-07T09:30:53.744Z,18.75
2023-04-07T09:35:00.039Z,14.30
2023-04-07T09:39:08.344Z,12.63
2023-04-07T09:43:16.982Z,13.27
2023-04-07T09:47:25.434Z,14.02
2023-04-07T09:51:27.503Z,14.93
2023-04-07T09:55:30.169Z,14.75
2023-04-07T09:59:33.430Z,15.20
2023-04-07T10:03:36.321Z,16.52
2023-04-07T10:07:38.769Z,16.40
2023-04-07T10:11:42.777Z,17.02
2023-04-07T10:15:44.513Z,17.98
2023-04-07T10:19:48.817Z,17.77
2023-04-07T10:23:59.698Z,16.25
2023-04-07T10:28:06.575Z,16.58
2023-04-07T10:32:08.666Z,17.65
2023-04-07T10:36:10.457Z,19.35
2023-04-07T10:40:26.927Z,18.33
2023-04-07T10:44:43.312Z,16.58
2023-04-07T10:49:11.024Z,16.02
2023-04-07T10:53:14.331Z,15.52
2023-04-07T10:57:16.907Z,16.08
2023-04-07T11:01:20.020Z,14.82
2023-04-07T11:05:23.255Z,14.80
2023-04-07T11:09:25.729Z,14.73
2023-04-07T11:13:27.630Z,14.00
2023-04-07T11:17:29.387Z,14.25
2023-04-07T11:21:31.098Z,12.82
2023-04-07T11:25:33.401Z,14.50
2023-04-07T11:29:35.114Z,14.65
2023-04-07T11:33:38.866Z,12.70
2023-04-07T11:37:40.581Z,11.98
2023-04-07T11:41:49.810Z,14.50
2023-04-07T11:46:05.975Z,13.23
2023-04-07T11:50:08.013Z,13.40
2023-04-07T11:54:11.037Z,14.93
2023-04-07T11:58:12.886Z,16.58
2023-04-07T12:02:34.578Z,15.02
2023-04-07T12:06:41.440Z,18.40
2023-04-07T12:10:43.421Z,19.23
2023-04-07T12:14:45.622Z,16.10
2023-04-07T12:18:47.622Z,16.10
2023-04-07T12:22:49.376Z,15.13
2023-04-07T12:26:51.249Z,15.90
2023-04-07T12:30:53.519Z,15.95
2023-04-07T12:34:55.244Z,15.90
2023-04-07T12:38:57.193Z,16.00
2023-04-07T12:42:58.884Z,15.88
2023-04-07T12:47:00.634Z,14.65
2023-04-07T12:51:02.376Z,14.48
2023-04-07T12:55:04.829Z,13.98
2023-04-07T12:59:06.541Z,14.32
2023-04-07T13:03:08.349Z,12.82
2023-04-07T13:07:10.203Z,12.88
2023-04-07T13:11:11.950Z,12.88
2023-04-07T13:15:13.672Z,13.70
2023-04-07T13:19:15.383Z,11.85
2023-04-07T13:23:18.692Z,13.52
2023-04-07T13:27:21.156Z,13.32
2023-04-07T13:31:23.663Z,13.00
2023-04-07T13:35:25.856Z,13.43
2023-04-07T13:39:27.641Z,13.30
2023-04-07T13:43:29.421Z,13.32
2023-04-07T13:47:34.199Z,12.82
2023-04-07T13:51:36.041Z,12.82
2023-04-07T13:55:37.881Z,12.88
2023-04-07T13:59:39.645Z,13.02
2023-04-07T14:03:41.888Z,12.37
2023-04-07T14:07:43.641Z,11.88
2023-04-07T14:11:45.430Z,10.82
2023-04-07T14:15:48.647Z,12.07
2023-04-07T14:19:50.605Z,11.30
2023-04-07T14:23:52.590Z,11.98
2023-04-07T14:27:54.439Z,14.13
2023-04-07T14:31:56.199Z,12.55
2023-04-07T14:35:58.233Z,12.73
2023-04-07T14:40:03.032Z,13.05
2023-04-07T14:44:09.464Z,13.40
2023-04-07T14:48:11.757Z,14.43
2023-04-07T14:52:14.062Z,13.95
2023-04-07T14:56:15.866Z,13.55
2023-04-07T15:00:17.871Z,14.50
2023-04-07T15:04:19.660Z,12.65
2023-04-07T15:08:21.447Z,14.65
2023-04-07T15:12:23.247Z,14.60
2023-04-07T15:16:25.055Z,14.65
2023-04-07T15:20:27.006Z,15.73
2023-04-07T15:24:28.795Z,17.48
2023-04-07T15:28:30.722Z,17.23
2023-04-07T15:32:32.482Z,16.33
2023-04-07T15:36:34.183Z,13.55
2023-04-07T15:40:37.167Z,13.18
2023-04-07T15:44:39.809Z,14.23
2023-04-07T15:48:41.805Z,13.85
2023-04-07T15:52:43.477Z,14.50
2023-04-07T15:56:45.238Z,14.50
2023-04-07T16:00:47.135Z,15.18
2023-04-07T16:04:49.199Z,16.25
2023-04-07T16:08:50.927Z,18.15
2023-04-07T16:12:52.737Z,19.15
2023-04-07T16:16:58.513Z,17.90
2023-04-07T16:21:02.426Z,16.65
2023-04-07T16:25:06.213Z,17.48
2023-04-07T16:29:07.984Z,16.08
2023-04-07T16:33:09.916Z,14.55
2023-04-07T16:37:12.687Z,15.85
2023-04-07T16:41:14.476Z,16.75
2023-04-07T16:45:16.236Z,17.70
2023-04-07T16:49:18.055Z,15.77
2023-04-07T16:53:21.188Z,14.90
2023-04-07T16:57:23.368Z,15.95
2023-04-07T17:01:28.337Z,16.90
2023-04-07T17:05:30.287Z,15.65
2023-04-07T17:09:32.616Z,16.83
2023-04-07T17:13:34.782Z,16.87
2023-04-07T17:17:36.944Z,16.50
2023-04-07T17:21:38.766Z,16.08
2023-04-07T17:25:40.943Z,16.52
2023-04-07T17:29:42.646Z,15.43
2023-04-07T17:33:44.369Z,15.63
2023-04-07T17:37:46.450Z,14.70
2023-04-07T17:41:48.168Z,17.02
2023-04-07T17:45:49.916Z,15.63
2023-04-07T17:49:51.668Z,14.80
2023-04-07T17:53:54.271Z,16.98
2023-04-07T17:58:00.645Z,19.05
2023-04-07T18:02:08.718Z,16.02
2023-04-07T18:06:14.694Z,17.65
2023-04-07T18:10:18.289Z,16.98
2023-04-07T18:14:20.033Z,18.48
2023-04-07T18:18:21.839Z,16.98
2023-04-07T18:22:23.694Z,19.12
2023-04-07T18:26:25.497Z,16.58
2023-04-07T18:30:27.192Z,17.55
2023-04-07T18:34:28.883Z,19.60
2023-04-07T18:38:30.808Z,21.37
2023-04-07T18:42:32.522Z,23.38
2023-04-07T18:46:34.273Z,24.02
2023-04-07T18:50:36.035Z,23.95
2023-04-07T18:54:37.830Z,23.33
2023-04-07T18:58:44.657Z,21.83
2023-04-07T19:02:47.406Z,21.60
2023-04-07T19:06:52.777Z,20.92
2023-04-07T19:10:54.537Z,21.23
2023-04-07T19:14:56.566Z,21.50
2023-04-07T19:18:58.264Z,20.17
2023-04-07T19:23:00.307Z,20.58
2023-04-07T19:27:02.067Z,20.50
2023-04-07T19:31:06.520Z,20.40
2023-04-07T19:35:09.902Z,21.52
2023-04-07T19:39:11.779Z,20.73
2023-04-07T19:43:16.307Z,23.87
2023-04-07T19:47:18.001Z,22.98
2023-04-07T19:51:19.844Z,23.00
2023-04-07T19:55:21.704Z,22.80
2023-04-07T19:59:23.473Z,23.48
2023-04-07T20:03:25.303Z,22.58
2023-04-07T20:07:27.227Z,21.95
2023-04-07T20:11:28.984Z,23.33
2023-04-07T20:15:30.966Z,21.73
2023-04-07T20:19:32.730Z,23.40
2023-04-07T20:23:34.592Z,23.67
2023-04-07T20:27:36.786Z,22.20
2023-04-07T20:31:38.653Z,21.37
2023-04-07T20:35:40.486Z,22.65
2023-04-07T20:39:42.278Z,21.40
2023-04-07T20:43:44.089Z,22.70
2023-04-07T20:47:46.003Z,21.85
2023-04-07T20:51:47.988Z,23.08
2023-04-07T20:55:49.778Z,22.40
2023-04-07T20:59:51.690Z,23.15
2023-04-07T21:03:54.126Z,23.00
2023-04-07T21:07:55.936Z,23.48
2023-04-07T21:11:57.684Z,24.08
2023-04-07T21:15:59.447Z,23.85
2023-04-07T21:20:01.250Z,22.62
2023-04-07T21:24:02.985Z,24.20
2023-04-07T21:28:04.864Z,24.17
2023-04-07T21:32:07.307Z,23.42
2023-04-07T21:36:09.089Z,23.42
2023-04-07T21:40:11.206Z,26.85
2023-04-07T21:44:13.156Z,25.85
2023-04-07T21:48:16.118Z,26.87
2023-04-07T21:52:17.911Z,26.30
2023-04-07T21:56:19.652Z,26.08
2023-04-07T22:00:21.940Z,25.05
2023-04-07T22:04:23.918Z,25.33
2023-04-07T22:08:27.085Z,24.95
2023-04-07T22:12:28.909Z,23.85
2023-04-07T22:16:30.777Z,22.35
2023-04-07T22:20:32.582Z,24.23
2023-04-07T22:24:34.909Z,25.85
2023-04-07T22:28:37.105Z,26.45
2023-04-07T22:32:38.928Z,25.60
2023-04-07T22:36:41.011Z,27.95
2023-04-07T22:40:43.201Z,27.70
2023-04-07T22:44:44.946Z,28.75
2023-04-07T22:48:47.003Z,28.08
2023-04-07T22:52:48.976Z,26.62
2023-04-07T22:56:51.074Z,26.75
2023-04-07T23:00:52.919Z,28.75
2023-04-07T23:04:55.230Z,29.33
2023-04-07T23:08:57.055Z,28.67
2023-04-07T23:12:58.892Z,28.30
2023-04-07T23:17:01.118Z,28.23
2023-04-07T23:21:03.384Z,27.40
2023-04-07T23:25:05.788Z,30.23
2023-04-07T23:29:07.546Z,30.17
2023-04-07T23:33:09.262Z,29.87
2023-04-07T23:37:10.973Z,31.58
2023-04-07T23:41:13.011Z,29.73
2023-04-07T23:45:14.890Z,29.58
2023-04-07T23:49:16.872Z,32.30
2023-04-07T23:53:18.951Z,31.92
2023-04-07T23:57:20.881Z,31.17
